sensor_id;sensor_type;location;lat;lon;timestamp;P1;durP1;ratioP1;P2;durP2;ratioP2
15383;SDS011;7790;53.022;12.968;2023-09-19T00:03:32;1.90;;;1.70;;
15383;SDS011;7790;53.022;12.968;2023-09-19T00:07:33;3.27;;;2.03;;
15383;SDS011;7790;53.022;12.968;2023-09-19T00:11:37;3.33;;;1.87;;
15383;SDS011;7790;53.022;12.968;2023-09-19T00:15:42;2.53;;;2.03;;
15383;SDS011;7790;53.022;12.968;2023-09-19T00:19:48;2.73;;;1.90;;
15383;SDS011;7790;53.022;12.968;2023-09-19T00:23:49;3.00;;;1.90;;
15383;SDS011;7790;53.022;12.968;2023-09-19T00:27:51;2.70;;;1.80;;
15383;SDS011;7790;53.022;12.968;2023-09-19T00:31:55;2.00;;;1.77;;
15383;SDS011;7790;53.022;12.968;2023-09-19T00:35:57;2.00;;;1.90;;
15383;SDS011;7790;53.022;12.968;2023-09-19T00:39:58;2.37;;;1.90;;
15383;SDS011;7790;53.022;12.968;2023-09-19T00:43:59;3.50;;;2.07;;
15383;SDS011;7790;53.022;12.968;2023-09-19T00:48:02;4.70;;;2.03;;
15383;SDS011;7790;53.022;12.968;2023-09-19T00:52:04;3.17;;;2.23;;
15383;SDS011;7790;53.022;12.968;2023-09-19T00:56:05;2.83;;;2.10;;
15383;SDS011;7790;53.022;12.968;2023-09-19T01:00:07;2.13;;;1.70;;
15383;SDS011;7790;53.022;12.968;2023-09-19T01:04:15;2.27;;;1.93;;
15383;SDS011;7790;53.022;12.968;2023-09-19T01:08:17;4.53;;;1.87;;
15383;SDS011;7790;53.022;12.968;2023-09-19T01:12:22;7.20;;;2.20;;
15383;SDS011;7790;53.022;12.968;2023-09-19T01:21:21;2.27;;;1.90;;
15383;SDS011;7790;53.022;12.968;2023-09-19T01:29:41;2.33;;;2.10;;
15383;SDS011;7790;53.022;12.968;2023-09-19T01:33:54;2.93;;;2.00;;
15383;SDS011;7790;53.022;12.968;2023-09-19T01:38:00;4.10;;;1.70;;
15383;SDS011;7790;53.022;12.968;2023-09-19T01:42:05;4.83;;;1.60;;
15383;SDS011;7790;53.022;12.968;2023-09-19T01:46:21;3.23;;;1.73;;
15383;SDS011;7790;53.022;12.968;2023-09-19T01:50:31;3.20;;;1.87;;
15383;SDS011;7790;53.022;12.968;2023-09-19T01:54:50;2.33;;;1.57;;
15383;SDS011;7790;53.022;12.968;2023-09-19T01:58:58;4.27;;;1.90;;
15383;SDS011;7790;53.022;12.968;2023-09-19T02:03:05;2.10;;;1.60;;
15383;SDS011;7790;53.022;12.968;2023-09-19T02:07:06;4.50;;;2.00;;
15383;SDS011;7790;53.022;12.968;2023-09-19T02:11:08;1.97;;;1.80;;
15383;SDS011;7790;53.022;12.968;2023-09-19T02:15:09;1.97;;;1.77;;
15383;SDS011;7790;53.022;12.968;2023-09-19T02:19:10;2.80;;;1.63;;
15383;SDS011;7790;53.022;12.968;2023-09-19T02:23:11;3.17;;;1.80;;
15383;SDS011;7790;53.022;12.968;2023-09-19T02:27:12;2.13;;;1.73;;
15383;SDS011;7790;53.022;12.968;2023-09-19T02:31:16;2.70;;;1.70;;
15383;SDS011;7790;53.022;12.968;2023-09-19T02:35:17;3.17;;;2.00;;
15383;SDS011;7790;53.022;12.968;2023-09-19T02:39:20;3.00;;;2.30;;
15383;SDS011;7790;53.022;12.968;2023-09-19T02:43:21;1.50;;;1.40;;
15383;SDS011;7790;53.022;12.968;2023-09-19T02:47:23;2.10;;;1.23;;
15383;SDS011;7790;53.022;12.968;2023-09-19T02:51:24;2.37;;;1.60;;
15383;SDS011;7790;53.022;12.968;2023-09-19T02:55:25;2.00;;;1.80;;
15383;SDS011;7790;53.022;12.968;2023-09-19T02:59:25;2.20;;;1.60;;
15383;SDS011;7790;53.022;12.968;2023-09-19T03:03:28;2.10;;;1.27;;
15383;SDS011;7790;53.022;12.968;2023-09-19T03:07:29;2.13;;;1.60;;
15383;SDS011;7790;53.022;12.968;2023-09-19T03:11:30;2.73;;;1.37;;
15383;SDS011;7790;53.022;12.968;2023-09-19T03:15:32;4.67;;;1.67;;
15383;SDS011;7790;53.022;12.968;2023-09-19T03:19:33;2.67;;;1.20;;
15383;SDS011;7790;53.022;12.968;2023-09-19T03:23:34;2.30;;;1.43;;
15383;SDS011;7790;53.022;12.968;2023-09-19T03:27:35;1.20;;;1.10;;
15383;SDS011;7790;53.022;12.968;2023-09-19T03:31:36;2.93;;;1.13;;
15383;SDS011;7790;53.022;12.968;2023-09-19T03:35:39;2.13;;;1.40;;
15383;SDS011;7790;53.022;12.968;2023-09-19T03:39:40;1.20;;;1.10;;
15383;SDS011;7790;53.022;12.968;2023-09-19T03:43:42;1.10;;;1.00;;
15383;SDS011;7790;53.022;12.968;2023-09-19T03:47:44;1.10;;;1.10;;
15383;SDS011;7790;53.022;12.968;2023-09-19T03:51:49;2.00;;;1.00;;
15383;SDS011;7790;53.022;12.968;2023-09-19T03:55:50;1.50;;;1.33;;
15383;SDS011;7790;53.022;12.968;2023-09-19T03:59:51;1.47;;;1.20;;
15383;SDS011;7790;53.022;12.968;2023-09-19T04:03:53;1.10;;;1.00;;
15383;SDS011;7790;53.022;12.968;2023-09-19T04:07:54;1.20;;;1.10;;
15383;SDS011;7790;53.022;12.968;2023-09-19T04:11:55;1.03;;;1.00;;
15383;SDS011;7790;53.022;12.968;2023-09-19T04:15:56;1.47;;;0.93;;
15383;SDS011;7790;53.022;12.968;2023-09-19T04:19:58;1.53;;;1.13;;
15383;SDS011;7790;53.022;12.968;2023-09-19T04:23:59;2.77;;;1.37;;
15383;SDS011;7790;53.022;12.968;2023-09-19T04:28:00;2.57;;;1.10;;
15383;SDS011;7790;53.022;12.968;2023-09-19T04:32:01;1.17;;;0.90;;
15383;SDS011;7790;53.022;12.968;2023-09-19T04:36:06;1.40;;;1.27;;
15383;SDS011;7790;53.022;12.968;2023-09-19T04:40:08;1.47;;;1.20;;
15383;SDS011;7790;53.022;12.968;2023-09-19T04:44:17;2.80;;;1.30;;
15383;SDS011;7790;53.022;12.968;2023-09-19T04:48:18;2.23;;;1.30;;
15383;SDS011;7790;53.022;12.968;2023-09-19T04:52:19;1.67;;;1.30;;
15383;SDS011;7790;53.022;12.968;2023-09-19T04:56:20;1.03;;;1.03;;
15383;SDS011;7790;53.022;12.968;2023-09-19T05:00:22;1.97;;;1.40;;
15383;SDS011;7790;53.022;12.968;2023-09-19T05:04:24;1.80;;;1.20;;
15383;SDS011;7790;53.022;12.968;2023-09-19T05:08:25;1.80;;;1.50;;
15383;SDS011;7790;53.022;12.968;2023-09-19T05:12:26;2.67;;;1.60;;
15383;SDS011;7790;53.022;12.968;2023-09-19T05:16:28;1.43;;;1.23;;
15383;SDS011;7790;53.022;12.968;2023-09-19T05:20:29;2.90;;;1.70;;
15383;SDS011;7790;53.022;12.968;2023-09-19T05:24:32;4.07;;;1.50;;
15383;SDS011;7790;53.022;12.968;2023-09-19T05:28:33;2.43;;;1.60;;
15383;SDS011;7790;53.022;12.968;2023-09-19T05:32:35;2.57;;;1.70;;
15383;SDS011;7790;53.022;12.968;2023-09-19T05:36:36;2.07;;;1.80;;
15383;SDS011;7790;53.022;12.968;2023-09-19T05:40:37;1.53;;;1.43;;
15383;SDS011;7790;53.022;12.968;2023-09-19T05:44:39;1.97;;;1.47;;
15383;SDS011;7790;53.022;12.968;2023-09-19T05:48:40;2.80;;;1.80;;
15383;SDS011;7790;53.022;12.968;2023-09-19T05:52:41;2.10;;;1.60;;
15383;SDS011;7790;53.022;12.968;2023-09-19T05:56:44;2.07;;;1.50;;
15383;SDS011;7790;53.022;12.968;2023-09-19T06:00:47;2.77;;;1.90;;
15383;SDS011;7790;53.022;12.968;2023-09-19T06:04:49;2.80;;;1.70;;
15383;SDS011;7790;53.022;12.968;2023-09-19T06:08:50;2.60;;;1.60;;
15383;SDS011;7790;53.022;12.968;2023-09-19T06:12:51;2.53;;;1.67;;
15383;SDS011;7790;53.022;12.968;2023-09-19T06:16:52;3.07;;;1.87;;
15383;SDS011;7790;53.022;12.968;2023-09-19T06:20:54;3.20;;;1.60;;
15383;SDS011;7790;53.022;12.968;2023-09-19T06:24:55;4.53;;;1.73;;
15383;SDS011;7790;53.022;12.968;2023-09-19T06:28:56;2.17;;;1.70;;
15383;SDS011;7790;53.022;12.968;2023-09-19T06:32:57;5.40;;;1.80;;
15383;SDS011;7790;53.022;12.968;2023-09-19T06:36:58;2.73;;;1.63;;
15383;SDS011;7790;53.022;12.968;2023-09-19T06:40:59;3.67;;;2.00;;
15383;SDS011;7790;53.022;12.968;2023-09-19T06:45:01;3.83;;;1.90;;
15383;SDS011;7790;53.022;12.968;2023-09-19T06:49:02;3.00;;;1.70;;
15383;SDS011;7790;53.022;12.968;2023-09-19T06:53:06;4.53;;;1.63;;
15383;SDS011;7790;53.022;12.968;2023-09-19T06:57:07;2.50;;;1.60;;
15383;SDS011;7790;53.022;12.968;2023-09-19T07:01:10;2.53;;;1.30;;
15383;SDS011;7790;53.022;12.968;2023-09-19T07:05:11;5.90;;;1.80;;
15383;SDS011;7790;53.022;12.968;2023-09-19T07:09:12;4.00;;;1.70;;
15383;SDS011;7790;53.022;12.968;2023-09-19T07:13:13;3.50;;;1.67;;
15383;SDS011;7790;53.022;12.968;2023-09-19T07:17:17;4.53;;;1.80;;
15383;SDS011;7790;53.022;12.968;2023-09-19T07:21:19;6.57;;;1.87;;
15383;SDS011;7790;53.022;12.968;2023-09-19T07:25:20;3.13;;;1.60;;
15383;SDS011;7790;53.022;12.968;2023-09-19T07:29:21;4.20;;;1.90;;
15383;SDS011;7790;53.022;12.968;2023-09-19T07:33:22;6.97;;;2.10;;
15383;SDS011;7790;53.022;12.968;2023-09-19T07:37:26;5.63;;;2.37;;
15383;SDS011;7790;53.022;12.968;2023-09-19T07:41:29;7.17;;;1.97;;
15383;SDS011;7790;53.022;12.968;2023-09-19T07:45:31;4.40;;;1.77;;
15383;SDS011;7790;53.022;12.968;2023-09-19T07:49:32;3.93;;;1.90;;
15383;SDS011;7790;53.022;12.968;2023-09-19T07:53:33;3.87;;;1.90;;
15383;SDS011;7790;53.022;12.968;2023-09-19T07:57:35;6.53;;;1.90;;
15383;SDS011;7790;53.022;12.968;2023-09-19T08:01:37;4.13;;;2.00;;
15383;SDS011;7790;53.022;12.968;2023-09-19T08:05:40;2.83;;;1.87;;
15383;SDS011;7790;53.022;12.968;2023-09-19T08:09:43;4.33;;;1.67;;
15383;SDS011;7790;53.022;12.968;2023-09-19T08:13:48;3.53;;;1.93;;
15383;SDS011;7790;53.022;12.968;2023-09-19T08:17:49;3.30;;;2.00;;
15383;SDS011;7790;53.022;12.968;2023-09-19T08:21:50;4.07;;;1.93;;
15383;SDS011;7790;53.022;12.968;2023-09-19T08:25:55;4.63;;;1.90;;
15383;SDS011;7790;53.022;12.968;2023-09-19T08:29:57;4.57;;;1.83;;
15383;SDS011;7790;53.022;12.968;2023-09-19T08:33:58;4.00;;;1.90;;
15383;SDS011;7790;53.022;12.968;2023-09-19T08:38:00;3.03;;;1.83;;
15383;SDS011;7790;53.022;12.968;2023-09-19T08:42:04;3.47;;;1.77;;
15383;SDS011;7790;53.022;12.968;2023-09-19T08:50:15;4.37;;;1.77;;
15383;SDS011;7790;53.022;12.968;2023-09-19T08:54:24;2.60;;;1.90;;
15383;SDS011;7790;53.022;12.968;2023-09-19T08:58:30;2.60;;;1.80;;
15383;SDS011;7790;53.022;12.968;2023-09-19T09:02:42;1.80;;;1.57;;
15383;SDS011;7790;53.022;12.968;2023-09-19T09:06:43;2.23;;;1.77;;
15383;SDS011;7790;53.022;12.968;2023-09-19T09:10:45;2.47;;;1.80;;
15383;SDS011;7790;53.022;12.968;2023-09-19T09:14:46;2.37;;;1.80;;
15383;SDS011;7790;53.022;12.968;2023-09-19T09:18:50;3.30;;;2.00;;
15383;SDS011;7790;53.022;12.968;2023-09-19T09:22:55;4.50;;;2.23;;
15383;SDS011;7790;53.022;12.968;2023-09-19T09:27:00;2.87;;;1.70;;
15383;SDS011;7790;53.022;12.968;2023-09-19T09:31:05;2.27;;;1.80;;
15383;SDS011;7790;53.022;12.968;2023-09-19T09:35:09;2.87;;;1.83;;
15383;SDS011;7790;53.022;12.968;2023-09-19T09:39:10;2.37;;;1.80;;
15383;SDS011;7790;53.022;12.968;2023-09-19T09:43:28;2.13;;;1.50;;
15383;SDS011;7790;53.022;12.968;2023-09-19T09:47:41;2.87;;;2.07;;
15383;SDS011;7790;53.022;12.968;2023-09-19T09:52:07;4.43;;;1.90;;
15383;SDS011;7790;53.022;12.968;2023-09-19T09:56:16;6.47;;;2.57;;
15383;SDS011;7790;53.022;12.968;2023-09-19T10:00:18;3.07;;;1.97;;
15383;SDS011;7790;53.022;12.968;2023-09-19T10:04:27;4.60;;;2.30;;
15383;SDS011;7790;53.022;12.968;2023-09-19T10:08:36;2.93;;;2.17;;
15383;SDS011;7790;53.022;12.968;2023-09-19T10:12:42;2.93;;;1.90;;
15383;SDS011;7790;53.022;12.968;2023-09-19T10:16:47;2.87;;;1.83;;
15383;SDS011;7790;53.022;12.968;2023-09-19T10:20:49;2.73;;;1.70;;
15383;SDS011;7790;53.022;12.968;2023-09-19T10:24:50;2.67;;;2.10;;
15383;SDS011;7790;53.022;12.968;2023-09-19T10:28:54;3.17;;;2.27;;
15383;SDS011;7790;53.022;12.968;2023-09-19T10:32:57;2.53;;;2.00;;
15383;SDS011;7790;53.022;12.968;2023-09-19T10:37:01;2.37;;;1.83;;
15383;SDS011;7790;53.022;12.968;2023-09-19T10:41:06;2.53;;;1.93;;
15383;SDS011;7790;53.022;12.968;2023-09-19T10:45:08;2.97;;;1.90;;
15383;SDS011;7790;53.022;12.968;2023-09-19T10:49:13;3.33;;;2.00;;
15383;SDS011;7790;53.022;12.968;2023-09-19T10:53:14;3.57;;;2.07;;
15383;SDS011;7790;53.022;12.968;2023-09-19T10:57:20;3.47;;;2.17;;
15383;SDS011;7790;53.022;12.968;2023-09-19T11:01:47;3.60;;;1.93;;
15383;SDS011;7790;53.022;12.968;2023-09-19T11:06:01;2.90;;;1.80;;
15383;SDS011;7790;53.022;12.968;2023-09-19T11:10:10;4.83;;;2.23;;
15383;SDS011;7790;53.022;12.968;2023-09-19T11:14:49;2.90;;;1.93;;
15383;SDS011;7790;53.022;12.968;2023-09-19T11:18:53;4.40;;;2.30;;
15383;SDS011;7790;53.022;12.968;2023-09-19T11:27:16;3.30;;;1.90;;
15383;SDS011;7790;53.022;12.968;2023-09-19T11:40:16;3.53;;;2.37;;
15383;SDS011;7790;53.022;12.968;2023-09-19T11:48:18;3.70;;;2.13;;
15383;SDS011;7790;53.022;12.968;2023-09-19T11:52:23;2.63;;;1.90;;
15383;SDS011;7790;53.022;12.968;2023-09-19T11:56:25;4.87;;;2.10;;
15383;SDS011;7790;53.022;12.968;2023-09-19T12:00:31;3.27;;;2.07;;
15383;SDS011;7790;53.022;12.968;2023-09-19T12:04:35;3.53;;;1.97;;
15383;SDS011;7790;53.022;12.968;2023-09-19T12:08:38;2.80;;;1.90;;
15383;SDS011;7790;53.022;12.968;2023-09-19T12:12:40;2.17;;;1.80;;
15383;SDS011;7790;53.022;12.968;2023-09-19T12:16:53;4.43;;;2.20;;
15383;SDS011;7790;53.022;12.968;2023-09-19T12:20:55;2.57;;;2.00;;
15383;SDS011;7790;53.022;12.968;2023-09-19T12:25:05;2.47;;;1.87;;
15383;SDS011;7790;53.022;12.968;2023-09-19T12:29:14;3.40;;;1.93;;
15383;SDS011;7790;53.022;12.968;2023-09-19T12:33:18;2.83;;;2.03;;
15383;SDS011;7790;53.022;12.968;2023-09-19T12:37:21;2.33;;;2.00;;
15383;SDS011;7790;53.022;12.968;2023-09-19T12:41:22;2.90;;;1.70;;
15383;SDS011;7790;53.022;12.968;2023-09-19T12:45:23;2.20;;;1.70;;
15383;SDS011;7790;53.022;12.968;2023-09-19T12:49:24;3.40;;;1.93;;
15383;SDS011;7790;53.022;12.968;2023-09-19T12:53:27;3.00;;;1.80;;
15383;SDS011;7790;53.022;12.968;2023-09-19T12:57:30;2.23;;;1.90;;
15383;SDS011;7790;53.022;12.968;2023-09-19T13:01:34;2.53;;;1.77;;
15383;SDS011;7790;53.022;12.968;2023-09-19T13:05:47;3.60;;;1.97;;
15383;SDS011;7790;53.022;12.968;2023-09-19T13:10:04;3.07;;;1.90;;
15383;SDS011;7790;53.022;12.968;2023-09-19T13:14:18;3.07;;;1.93;;
15383;SDS011;7790;53.022;12.968;2023-09-19T13:18:20;4.67;;;1.83;;
15383;SDS011;7790;53.022;12.968;2023-09-19T13:22:40;2.97;;;1.70;;
15383;SDS011;7790;53.022;12.968;2023-09-19T13:26:49;4.50;;;1.90;;
15383;SDS011;7790;53.022;12.968;2023-09-19T13:30:50;3.83;;;1.90;;
15383;SDS011;7790;53.022;12.968;2023-09-19T13:34:50;5.07;;;1.90;;
15383;SDS011;7790;53.022;12.968;2023-09-19T13:38:51;3.30;;;1.60;;
15383;SDS011;7790;53.022;12.968;2023-09-19T13:42:53;2.83;;;1.57;;
15383;SDS011;7790;53.022;12.968;2023-09-19T13:46:54;2.97;;;1.60;;
15383;SDS011;7790;53.022;12.968;2023-09-19T13:50:57;1.93;;;1.57;;
15383;SDS011;7790;53.022;12.968;2023-09-19T13:54:58;2.93;;;1.60;;
15383;SDS011;7790;53.022;12.968;2023-09-19T13:58:59;4.13;;;1.90;;
15383;SDS011;7790;53.022;12.968;2023-09-19T14:03:00;3.93;;;1.60;;
15383;SDS011;7790;53.022;12.968;2023-09-19T14:07:01;2.80;;;1.77;;
15383;SDS011;7790;53.022;12.968;2023-09-19T14:11:07;4.30;;;1.50;;
15383;SDS011;7790;53.022;12.968;2023-09-19T14:15:09;3.30;;;1.70;;
15383;SDS011;7790;53.022;12.968;2023-09-19T14:19:10;3.17;;;1.90;;
15383;SDS011;7790;53.022;12.968;2023-09-19T14:23:11;3.53;;;1.53;;
15383;SDS011;7790;53.022;12.968;2023-09-19T14:27:12;2.40;;;1.57;;
15383;SDS011;7790;53.022;12.968;2023-09-19T14:31:14;3.27;;;1.90;;
15383;SDS011;7790;53.022;12.968;2023-09-19T14:35:15;2.70;;;1.73;;
15383;SDS011;7790;53.022;12.968;2023-09-19T14:39:16;4.50;;;1.80;;
15383;SDS011;7790;53.022;12.968;2023-09-19T14:43:17;6.90;;;1.80;;
15383;SDS011;7790;53.022;12.968;2023-09-19T14:47:19;4.53;;;1.73;;
15383;SDS011;7790;53.022;12.968;2023-09-19T14:51:20;2.87;;;1.80;;
15383;SDS011;7790;53.022;12.968;2023-09-19T14:55:21;2.60;;;1.60;;
15383;SDS011;7790;53.022;12.968;2023-09-19T14:59:23;3.33;;;1.80;;
15383;SDS011;7790;53.022;12.968;2023-09-19T15:03:24;2.20;;;1.50;;
15383;SDS011;7790;53.022;12.968;2023-09-19T15:07:26;3.73;;;1.90;;
15383;SDS011;7790;53.022;12.968;2023-09-19T15:11:29;4.20;;;2.00;;
15383;SDS011;7790;53.022;12.968;2023-09-19T15:15:31;4.10;;;1.90;;
15383;SDS011;7790;53.022;12.968;2023-09-19T15:19:32;2.97;;;1.47;;
15383;SDS011;7790;53.022;12.968;2023-09-19T15:23:33;2.57;;;1.60;;
15383;SDS011;7790;53.022;12.968;2023-09-19T15:27:34;2.00;;;1.57;;
15383;SDS011;7790;53.022;12.968;2023-09-19T15:31:37;3.10;;;1.70;;
15383;SDS011;7790;53.022;12.968;2023-09-19T15:35:38;2.87;;;1.80;;
15383;SDS011;7790;53.022;12.968;2023-09-19T15:39:39;3.03;;;1.80;;
15383;SDS011;7790;53.022;12.968;2023-09-19T15:43:41;2.83;;;2.20;;
15383;SDS011;7790;53.022;12.968;2023-09-19T15:47:42;2.80;;;2.50;;
15383;SDS011;7790;53.022;12.968;2023-09-19T15:51:43;4.07;;;2.50;;
15383;SDS011;7790;53.022;12.968;2023-09-19T15:55:43;4.20;;;2.53;;
15383;SDS011;7790;53.022;12.968;2023-09-19T15:59:45;4.03;;;2.40;;
15383;SDS011;7790;53.022;12.968;2023-09-19T16:03:50;3.67;;;2.03;;
15383;SDS011;7790;53.022;12.968;2023-09-19T16:07:53;2.50;;;2.30;;
15383;SDS011;7790;53.022;12.968;2023-09-19T16:11:55;3.87;;;2.40;;
15383;SDS011;7790;53.022;12.968;2023-09-19T16:15:56;3.40;;;2.30;;
15383;SDS011;7790;53.022;12.968;2023-09-19T16:19:57;4.10;;;2.43;;
15383;SDS011;7790;53.022;12.968;2023-09-19T16:23:58;7.70;;;2.80;;
15383;SDS011;7790;53.022;12.968;2023-09-19T16:28:00;8.40;;;2.97;;
15383;SDS011;7790;53.022;12.968;2023-09-19T16:32:01;8.13;;;3.23;;
15383;SDS011;7790;53.022;12.968;2023-09-19T16:36:02;10.83;;;2.63;;
15383;SDS011;7790;53.022;12.968;2023-09-19T16:40:24;9.03;;;2.90;;
15383;SDS011;7790;53.022;12.968;2023-09-19T16:44:25;9.03;;;3.10;;
15383;SDS011;7790;53.022;12.968;2023-09-19T16:48:27;4.87;;;2.50;;
15383;SDS011;7790;53.022;12.968;2023-09-19T16:52:31;6.03;;;2.90;;
15383;SDS011;7790;53.022;12.968;2023-09-19T16:56:34;6.53;;;2.30;;
15383;SDS011;7790;53.022;12.968;2023-09-19T17:00:37;6.33;;;2.33;;
15383;SDS011;7790;53.022;12.968;2023-09-19T17:04:37;8.80;;;2.50;;
15383;SDS011;7790;53.022;12.968;2023-09-19T17:08:39;7.30;;;2.60;;
15383;SDS011;7790;53.022;12.968;2023-09-19T17:12:40;4.43;;;2.43;;
15383;SDS011;7790;53.022;12.968;2023-09-19T17:16:41;8.23;;;2.27;;
15383;SDS011;7790;53.022;12.968;2023-09-19T17:20:42;4.30;;;2.00;;
15383;SDS011;7790;53.022;12.968;2023-09-19T17:24:43;5.40;;;2.80;;
15383;SDS011;7790;53.022;12.968;2023-09-19T17:28:46;4.90;;;2.20;;
15383;SDS011;7790;53.022;12.968;2023-09-19T17:32:47;5.73;;;2.30;;
15383;SDS011;7790;53.022;12.968;2023-09-19T17:36:48;5.00;;;2.00;;
15383;SDS011;7790;53.022;12.968;2023-09-19T17:40:49;3.80;;;1.93;;
15383;SDS011;7790;53.022;12.968;2023-09-19T17:44:51;2.73;;;1.80;;
15383;SDS011;7790;53.022;12.968;2023-09-19T17:48:53;4.77;;;1.93;;
15383;SDS011;7790;53.022;12.968;2023-09-19T17:52:55;2.63;;;2.03;;
15383;SDS011;7790;53.022;12.968;2023-09-19T17:56:57;5.07;;;2.53;;
15383;SDS011;7790;53.022;12.968;2023-09-19T18:01:06;4.83;;;2.00;;
15383;SDS011;7790;53.022;12.968;2023-09-19T18:05:12;5.97;;;2.10;;
15383;SDS011;7790;53.022;12.968;2023-09-19T18:09:16;7.07;;;2.83;;
15383;SDS011;7790;53.022;12.968;2023-09-19T18:13:18;4.70;;;2.07;;
15383;SDS011;7790;53.022;12.968;2023-09-19T18:17:20;5.20;;;2.00;;
15383;SDS011;7790;53.022;12.968;2023-09-19T18:21:21;3.80;;;2.23;;
15383;SDS011;7790;53.022;12.968;2023-09-19T18:25:23;6.00;;;2.30;;
15383;SDS011;7790;53.022;12.968;2023-09-19T18:29:24;2.90;;;2.10;;
15383;SDS011;7790;53.022;12.968;2023-09-19T18:33:27;6.80;;;2.27;;
15383;SDS011;7790;53.022;12.968;2023-09-19T18:37:28;6.27;;;2.23;;
15383;SDS011;7790;53.022;12.968;2023-09-19T18:41:28;3.63;;;1.97;;
15383;SDS011;7790;53.022;12.968;2023-09-19T18:45:30;4.10;;;2.20;;
15383;SDS011;7790;53.022;12.968;2023-09-19T18:49:32;4.73;;;1.90;;
15383;SDS011;7790;53.022;12.968;2023-09-19T18:53:35;8.00;;;2.40;;
15383;SDS011;7790;53.022;12.968;2023-09-19T18:57:40;6.37;;;2.33;;
15383;SDS011;7790;53.022;12.968;2023-09-19T19:01:42;3.37;;;2.00;;
15383;SDS011;7790;53.022;12.968;2023-09-19T19:05:46;10.07;;;3.20;;
15383;SDS011;7790;53.022;12.968;2023-09-19T19:09:47;9.10;;;2.77;;
15383;SDS011;7790;53.022;12.968;2023-09-19T19:13:47;5.57;;;2.00;;
15383;SDS011;7790;53.022;12.968;2023-09-19T19:17:51;9.30;;;2.47;;
15383;SDS011;7790;53.022;12.968;2023-09-19T19:21:53;6.43;;;2.60;;
15383;SDS011;7790;53.022;12.968;2023-09-19T19:25:54;5.50;;;2.30;;
15383;SDS011;7790;53.022;12.968;2023-09-19T19:29:57;4.97;;;2.10;;
15383;SDS011;7790;53.022;12.968;2023-09-19T19:33:57;3.83;;;2.13;;
15383;SDS011;7790;53.022;12.968;2023-09-19T19:37:58;6.00;;;2.40;;
15383;SDS011;7790;53.022;12.968;2023-09-19T19:41:59;5.37;;;2.37;;
15383;SDS011;7790;53.022;12.968;2023-09-19T19:46:01;4.43;;;2.37;;
15383;SDS011;7790;53.022;12.968;2023-09-19T19:50:05;7.57;;;2.60;;
15383;SDS011;7790;53.022;12.968;2023-09-19T19:54:08;3.90;;;2.50;;
15383;SDS011;7790;53.022;12.968;2023-09-19T19:58:09;3.77;;;2.37;;
15383;SDS011;7790;53.022;12.968;2023-09-19T20:02:10;4.63;;;2.40;;
15383;SDS011;7790;53.022;12.968;2023-09-19T20:06:11;7.30;;;2.30;;
15383;SDS011;7790;53.022;12.968;2023-09-19T20:10:13;5.47;;;2.03;;
15383;SDS011;7790;53.022;12.968;2023-09-19T20:14:17;3.03;;;2.27;;
15383;SDS011;7790;53.022;12.968;2023-09-19T20:18:18;2.43;;;1.87;;
15383;SDS011;7790;53.022;12.968;2023-09-19T20:22:19;4.13;;;2.40;;
15383;SDS011;7790;53.022;12.968;2023-09-19T20:26:20;5.97;;;2.70;;
15383;SDS011;7790;53.022;12.968;2023-09-19T20:30:21;4.07;;;2.03;;
15383;SDS011;7790;53.022;12.968;2023-09-19T20:34:23;5.23;;;2.13;;
15383;SDS011;7790;53.022;12.968;2023-09-19T20:38:27;3.47;;;2.10;;
15383;SDS011;7790;53.022;12.968;2023-09-19T20:42:28;3.30;;;2.23;;
15383;SDS011;7790;53.022;12.968;2023-09-19T20:46:29;3.87;;;2.20;;
15383;SDS011;7790;53.022;12.968;2023-09-19T20:50:30;4.20;;;2.20;;
15383;SDS011;7790;53.022;12.968;2023-09-19T20:54:31;2.77;;;2.13;;
15383;SDS011;7790;53.022;12.968;2023-09-19T20:58:32;4.07;;;2.17;;
15383;SDS011;7790;53.022;12.968;2023-09-19T21:02:38;4.90;;;2.40;;
15383;SDS011;7790;53.022;12.968;2023-09-19T21:06:40;2.93;;;1.87;;
15383;SDS011;7790;53.022;12.968;2023-09-19T21:10:40;3.03;;;2.00;;
15383;SDS011;7790;53.022;12.968;2023-09-19T21:14:41;3.30;;;1.90;;
15383;SDS011;7790;53.022;12.968;2023-09-19T21:18:45;3.13;;;1.93;;
15383;SDS011;7790;53.022;12.968;2023-09-19T21:22:46;2.90;;;1.80;;
15383;SDS011;7790;53.022;12.968;2023-09-19T21:26:48;3.93;;;2.20;;
15383;SDS011;7790;53.022;12.968;2023-09-19T21:35:04;2.63;;;2.00;;
15383;SDS011;7790;53.022;12.968;2023-09-19T21:39:05;3.13;;;1.90;;
15383;SDS011;7790;53.022;12.968;2023-09-19T21:43:07;2.53;;;1.93;;
15383;SDS011;7790;53.022;12.968;2023-09-19T21:47:08;2.13;;;1.80;;
15383;SDS011;7790;53.022;12.968;2023-09-19T21:51:10;4.13;;;2.50;;
15383;SDS011;7790;53.022;12.968;2023-09-19T21:55:11;4.27;;;2.07;;
15383;SDS011;7790;53.022;12.968;2023-09-19T21:59:11;3.40;;;2.00;;
15383;SDS011;7790;53.022;12.968;2023-09-19T22:03:14;3.20;;;2.00;;
15383;SDS011;7790;53.022;12.968;2023-09-19T22:07:17;2.67;;;1.87;;
15383;SDS011;7790;53.022;12.968;2023-09-19T22:11:18;2.63;;;1.97;;
15383;SDS011;7790;53.022;12.968;2023-09-19T22:15:22;2.90;;;2.27;;
15383;SDS011;7790;53.022;12.968;2023-09-19T22:19:23;3.70;;;1.90;;
15383;SDS011;7790;53.022;12.968;2023-09-19T22:23:25;2.13;;;1.77;;
15383;SDS011;7790;53.022;12.968;2023-09-19T22:27:31;3.17;;;1.87;;
15383;SDS011;7790;53.022;12.968;2023-09-19T22:31:34;2.67;;;1.70;;
15383;SDS011;7790;53.022;12.968;2023-09-19T22:35:43;2.73;;;1.90;;
15383;SDS011;7790;53.022;12.968;2023-09-19T22:39:51;2.67;;;1.93;;
15383;SDS011;7790;53.022;12.968;2023-09-19T22:43:52;3.90;;;2.07;;
15383;SDS011;7790;53.022;12.968;2023-09-19T22:47:55;2.47;;;1.80;;
15383;SDS011;7790;53.022;12.968;2023-09-19T22:51:58;3.33;;;2.13;;
15383;SDS011;7790;53.022;12.968;2023-09-19T22:56:00;3.07;;;2.20;;
15383;SDS011;7790;53.022;12.968;2023-09-19T23:00:03;3.90;;;2.00;;
15383;SDS011;7790;53.022;12.968;2023-09-19T23:04:06;3.70;;;2.10;;
15383;SDS011;7790;53.022;12.968;2023-09-19T23:08:10;2.87;;;1.90;;
15383;SDS011;7790;53.022;12.968;2023-09-19T23:12:12;2.37;;;1.50;;
15383;SDS011;7790;53.022;12.968;2023-09-19T23:16:20;2.07;;;1.70;;
15383;SDS011;7790;53.022;12.968;2023-09-19T23:20:33;3.20;;;2.20;;
15383;SDS011;7790;53.022;12.968;2023-09-19T23:24:39;2.60;;;1.83;;
15383;SDS011;7790;53.022;12.968;2023-09-19T23:28:41;3.07;;;1.93;;
15383;SDS011;7790;53.022;12.968;2023-09-19T23:32:48;4.33;;;1.93;;
15383;SDS011;7790;53.022;12.968;2023-09-19T23:36:50;3.00;;;1.80;;
15383;SDS011;7790;53.022;12.968;2023-09-19T23:40:51;3.97;;;1.90;;
15383;SDS011;7790;53.022;12.968;2023-09-19T23:44:52;5.50;;;2.17;;
15383;SDS011;7790;53.022;12.968;2023-09-19T23:48:55;4.23;;;2.20;;
15383;SDS011;7790;53.022;12.968;2023-09-19T23:52:57;3.50;;;2.00;;
15383;SDS011;7790;53.022;12.968;2023-09-19T23:57:00;2.93;;;1.90;;
